sensor_id;sensor_type;location;lat;lon;timestamp;P1;durP1;ratioP1;P2;durP2;ratioP2
44842;SDS011;31884;52.538;13.820;2023-11-19T00:02:06;11.05;;;7.38;;
44842;SDS011;31884;52.538;13.820;2023-11-19T00:04:33;12.20;;;7.25;;
44842;SDS011;31884;52.538;13.820;2023-11-19T00:07:02;14.15;;;8.52;;
44842;SDS011;31884;52.538;13.820;2023-11-19T00:09:30;12.32;;;8.25;;
44842;SDS011;31884;52.538;13.820;2023-11-19T00:11:56;14.55;;;8.02;;
44842;SDS011;31884;52.538;13.820;2023-11-19T00:14:22;13.20;;;8.43;;
44842;SDS011;31884;52.538;13.820;2023-11-19T00:16:49;12.07;;;8.23;;
44842;SDS011;31884;52.538;13.820;2023-11-19T00:19:16;13.30;;;7.72;;
44842;SDS011;31884;52.538;13.820;2023-11-19T00:21:42;15.13;;;9.43;;
44842;SDS011;31884;52.538;13.820;2023-11-19T00:24:07;10.60;;;7.55;;
44842;SDS011;31884;52.538;13.820;2023-11-19T00:26:33;15.07;;;8.68;;
44842;SDS011;31884;52.538;13.820;2023-11-19T00:28:58;10.70;;;7.43;;
44842;SDS011;31884;52.538;13.820;2023-11-19T00:31:24;10.93;;;7.00;;
44842;SDS011;31884;52.538;13.820;2023-11-19T00:33:52;12.13;;;8.55;;
44842;SDS011;31884;52.538;13.820;2023-11-19T00:36:18;10.13;;;7.03;;
44842;SDS011;31884;52.538;13.820;2023-11-19T00:38:44;13.80;;;7.53;;
44842;SDS011;31884;52.538;13.820;2023-11-19T00:41:09;11.80;;;7.32;;
44842;SDS011;31884;52.538;13.820;2023-11-19T00:43:35;10.50;;;7.72;;
44842;SDS011;31884;52.538;13.820;2023-11-19T00:46:01;11.32;;;7.97;;
44842;SDS011;31884;52.538;13.820;2023-11-19T00:48:29;10.57;;;6.38;;
44842;SDS011;31884;52.538;13.820;2023-11-19T00:50:54;9.98;;;6.40;;
44842;SDS011;31884;52.538;13.820;2023-11-19T00:53:20;9.35;;;6.95;;
44842;SDS011;31884;52.538;13.820;2023-11-19T00:55:45;9.27;;;6.60;;
44842;SDS011;31884;52.538;13.820;2023-11-19T00:58:11;12.25;;;7.60;;
44842;SDS011;31884;52.538;13.820;2023-11-19T01:00:36;9.73;;;6.72;;
44842;SDS011;31884;52.538;13.820;2023-11-19T01:03:02;11.65;;;7.53;;
44842;SDS011;31884;52.538;13.820;2023-11-19T01:05:27;10.55;;;7.32;;
44842;SDS011;31884;52.538;13.820;2023-11-19T01:07:53;11.30;;;7.18;;
44842;SDS011;31884;52.538;13.820;2023-11-19T01:10:19;14.02;;;8.07;;
44842;SDS011;31884;52.538;13.820;2023-11-19T01:12:45;12.18;;;7.43;;
44842;SDS011;31884;52.538;13.820;2023-11-19T01:15:11;11.90;;;7.40;;
44842;SDS011;31884;52.538;13.820;2023-11-19T01:17:38;13.13;;;7.70;;
44842;SDS011;31884;52.538;13.820;2023-11-19T01:20:03;10.50;;;7.43;;
44842;SDS011;31884;52.538;13.820;2023-11-19T01:22:31;12.55;;;6.82;;
44842;SDS011;31884;52.538;13.820;2023-11-19T01:24:57;9.82;;;6.97;;
44842;SDS011;31884;52.538;13.820;2023-11-19T01:27:23;16.27;;;7.43;;
44842;SDS011;31884;52.538;13.820;2023-11-19T01:29:49;9.50;;;6.43;;
44842;SDS011;31884;52.538;13.820;2023-11-19T01:32:15;11.80;;;7.05;;
44842;SDS011;31884;52.538;13.820;2023-11-19T01:34:40;10.85;;;7.28;;
44842;SDS011;31884;52.538;13.820;2023-11-19T01:37:06;9.32;;;6.20;;
44842;SDS011;31884;52.538;13.820;2023-11-19T01:39:34;11.57;;;7.22;;
44842;SDS011;31884;52.538;13.820;2023-11-19T01:41:59;8.27;;;5.88;;
44842;SDS011;31884;52.538;13.820;2023-11-19T01:44:25;11.20;;;6.97;;
44842;SDS011;31884;52.538;13.820;2023-11-19T01:46:50;12.43;;;7.40;;
44842;SDS011;31884;52.538;13.820;2023-11-19T01:49:17;9.38;;;6.35;;
44842;SDS011;31884;52.538;13.820;2023-11-19T01:51:43;11.77;;;6.63;;
44842;SDS011;31884;52.538;13.820;2023-11-19T01:54:10;9.95;;;6.80;;
44842;SDS011;31884;52.538;13.820;2023-11-19T01:56:36;11.25;;;6.80;;
44842;SDS011;31884;52.538;13.820;2023-11-19T01:59:05;11.63;;;7.60;;
44842;SDS011;31884;52.538;13.820;2023-11-19T02:01:32;11.40;;;7.82;;
44842;SDS011;31884;52.538;13.820;2023-11-19T02:03:59;8.70;;;6.90;;
44842;SDS011;31884;52.538;13.820;2023-11-19T02:06:26;9.10;;;6.05;;
44842;SDS011;31884;52.538;13.820;2023-11-19T02:08:53;9.57;;;6.30;;
44842;SDS011;31884;52.538;13.820;2023-11-19T02:11:18;12.05;;;7.93;;
44842;SDS011;31884;52.538;13.820;2023-11-19T02:13:44;12.48;;;8.35;;
44842;SDS011;31884;52.538;13.820;2023-11-19T02:16:10;11.23;;;6.45;;
44842;SDS011;31884;52.538;13.820;2023-11-19T02:18:35;11.63;;;7.32;;
44842;SDS011;31884;52.538;13.820;2023-11-19T02:21:01;9.77;;;6.68;;
44842;SDS011;31884;52.538;13.820;2023-11-19T02:23:27;12.18;;;7.18;;
44842;SDS011;31884;52.538;13.820;2023-11-19T02:26:02;14.35;;;7.53;;
44842;SDS011;31884;52.538;13.820;2023-11-19T02:28:43;10.55;;;7.25;;
44842;SDS011;31884;52.538;13.820;2023-11-19T02:31:09;11.32;;;7.57;;
44842;SDS011;31884;52.538;13.820;2023-11-19T02:33:38;13.75;;;8.50;;
44842;SDS011;31884;52.538;13.820;2023-11-19T02:36:04;10.35;;;7.47;;
44842;SDS011;31884;52.538;13.820;2023-11-19T02:38:32;12.73;;;7.38;;
44842;SDS011;31884;52.538;13.820;2023-11-19T02:40:58;13.40;;;7.70;;
44842;SDS011;31884;52.538;13.820;2023-11-19T02:43:23;14.43;;;8.75;;
44842;SDS011;31884;52.538;13.820;2023-11-19T02:45:49;16.13;;;7.78;;
44842;SDS011;31884;52.538;13.820;2023-11-19T02:48:15;10.68;;;7.47;;
44842;SDS011;31884;52.538;13.820;2023-11-19T02:50:44;14.75;;;9.07;;
44842;SDS011;31884;52.538;13.820;2023-11-19T02:53:09;15.48;;;9.48;;
44842;SDS011;31884;52.538;13.820;2023-11-19T02:55:35;15.18;;;8.68;;
44842;SDS011;31884;52.538;13.820;2023-11-19T02:58:03;12.27;;;8.05;;
44842;SDS011;31884;52.538;13.820;2023-11-19T03:00:39;12.07;;;8.15;;
44842;SDS011;31884;52.538;13.820;2023-11-19T03:03:12;11.82;;;7.32;;
44842;SDS011;31884;52.538;13.820;2023-11-19T03:05:48;14.68;;;9.43;;
44842;SDS011;31884;52.538;13.820;2023-11-19T03:08:14;12.05;;;8.07;;
44842;SDS011;31884;52.538;13.820;2023-11-19T03:10:41;11.20;;;6.80;;
44842;SDS011;31884;52.538;13.820;2023-11-19T03:13:10;12.35;;;7.95;;
44842;SDS011;31884;52.538;13.820;2023-11-19T03:15:38;12.40;;;7.75;;
44842;SDS011;31884;52.538;13.820;2023-11-19T03:18:04;13.18;;;8.40;;
44842;SDS011;31884;52.538;13.820;2023-11-19T03:20:29;14.68;;;8.38;;
44842;SDS011;31884;52.538;13.820;2023-11-19T03:22:55;10.48;;;6.75;;
44842;SDS011;31884;52.538;13.820;2023-11-19T03:25:22;15.10;;;8.70;;
44842;SDS011;31884;52.538;13.820;2023-11-19T03:27:50;13.88;;;7.65;;
44842;SDS011;31884;52.538;13.820;2023-11-19T03:30:16;13.20;;;8.25;;
44842;SDS011;31884;52.538;13.820;2023-11-19T03:32:42;12.02;;;7.35;;
44842;SDS011;31884;52.538;13.820;2023-11-19T03:35:08;12.15;;;9.05;;
44842;SDS011;31884;52.538;13.820;2023-11-19T03:37:34;15.20;;;9.32;;
44842;SDS011;31884;52.538;13.820;2023-11-19T03:40:00;13.45;;;8.18;;
44842;SDS011;31884;52.538;13.820;2023-11-19T03:42:26;13.10;;;8.30;;
44842;SDS011;31884;52.538;13.820;2023-11-19T03:44:52;13.10;;;8.65;;
44842;SDS011;31884;52.538;13.820;2023-11-19T03:47:18;14.25;;;8.40;;
44842;SDS011;31884;52.538;13.820;2023-11-19T03:49:50;11.73;;;6.93;;
44842;SDS011;31884;52.538;13.820;2023-11-19T03:52:17;11.73;;;7.75;;
44842;SDS011;31884;52.538;13.820;2023-11-19T03:54:43;10.48;;;7.03;;
44842;SDS011;31884;52.538;13.820;2023-11-19T03:57:09;10.32;;;6.82;;
44842;SDS011;31884;52.538;13.820;2023-11-19T03:59:38;11.23;;;7.20;;
44842;SDS011;31884;52.538;13.820;2023-11-19T04:02:04;10.90;;;7.47;;
44842;SDS011;31884;52.538;13.820;2023-11-19T04:04:29;11.13;;;7.07;;
44842;SDS011;31884;52.538;13.820;2023-11-19T04:06:55;11.10;;;7.15;;
44842;SDS011;31884;52.538;13.820;2023-11-19T04:09:21;11.77;;;7.60;;
44842;SDS011;31884;52.538;13.820;2023-11-19T04:11:47;10.30;;;7.00;;
44842;SDS011;31884;52.538;13.820;2023-11-19T04:14:13;12.40;;;7.32;;
44842;SDS011;31884;52.538;13.820;2023-11-19T04:16:39;10.05;;;6.53;;
44842;SDS011;31884;52.538;13.820;2023-11-19T04:19:05;10.77;;;6.47;;
44842;SDS011;31884;52.538;13.820;2023-11-19T04:21:31;9.85;;;7.45;;
44842;SDS011;31884;52.538;13.820;2023-11-19T04:23:57;11.43;;;7.00;;
44842;SDS011;31884;52.538;13.820;2023-11-19T04:26:22;11.00;;;6.47;;
44842;SDS011;31884;52.538;13.820;2023-11-19T04:28:48;11.63;;;6.57;;
44842;SDS011;31884;52.538;13.820;2023-11-19T04:31:14;10.45;;;6.32;;
44842;SDS011;31884;52.538;13.820;2023-11-19T04:33:41;11.40;;;7.45;;
44842;SDS011;31884;52.538;13.820;2023-11-19T04:36:07;10.77;;;6.60;;
44842;SDS011;31884;52.538;13.820;2023-11-19T04:38:32;11.07;;;6.82;;
44842;SDS011;31884;52.538;13.820;2023-11-19T04:40:58;10.65;;;6.93;;
44842;SDS011;31884;52.538;13.820;2023-11-19T04:43:23;8.48;;;6.15;;
44842;SDS011;31884;52.538;13.820;2023-11-19T04:45:49;11.77;;;6.85;;
44842;SDS011;31884;52.538;13.820;2023-11-19T04:48:14;12.68;;;7.03;;
44842;SDS011;31884;52.538;13.820;2023-11-19T04:50:40;9.75;;;6.22;;
44842;SDS011;31884;52.538;13.820;2023-11-19T04:53:05;15.05;;;7.88;;
44842;SDS011;31884;52.538;13.820;2023-11-19T04:55:31;10.18;;;7.07;;
44842;SDS011;31884;52.538;13.820;2023-11-19T04:57:56;12.45;;;7.53;;
44842;SDS011;31884;52.538;13.820;2023-11-19T05:00:22;12.65;;;7.65;;
44842;SDS011;31884;52.538;13.820;2023-11-19T05:02:47;12.23;;;7.47;;
44842;SDS011;31884;52.538;13.820;2023-11-19T05:05:13;17.13;;;8.50;;
44842;SDS011;31884;52.538;13.820;2023-11-19T05:07:41;10.25;;;6.80;;
44842;SDS011;31884;52.538;13.820;2023-11-19T05:10:06;10.77;;;7.20;;
44842;SDS011;31884;52.538;13.820;2023-11-19T05:12:32;11.27;;;6.88;;
44842;SDS011;31884;52.538;13.820;2023-11-19T05:14:58;13.30;;;7.68;;
44842;SDS011;31884;52.538;13.820;2023-11-19T05:17:25;12.80;;;7.88;;
44842;SDS011;31884;52.538;13.820;2023-11-19T05:19:50;11.35;;;8.43;;
44842;SDS011;31884;52.538;13.820;2023-11-19T05:22:16;14.48;;;8.57;;
44842;SDS011;31884;52.538;13.820;2023-11-19T05:24:42;11.65;;;6.75;;
44842;SDS011;31884;52.538;13.820;2023-11-19T05:27:07;13.45;;;7.95;;
44842;SDS011;31884;52.538;13.820;2023-11-19T05:29:33;13.15;;;7.85;;
44842;SDS011;31884;52.538;13.820;2023-11-19T05:31:59;13.55;;;8.82;;
44842;SDS011;31884;52.538;13.820;2023-11-19T05:34:24;16.35;;;9.70;;
44842;SDS011;31884;52.538;13.820;2023-11-19T05:36:50;16.23;;;9.05;;
44842;SDS011;31884;52.538;13.820;2023-11-19T05:39:16;13.88;;;8.80;;
44842;SDS011;31884;52.538;13.820;2023-11-19T05:41:43;14.45;;;9.15;;
44842;SDS011;31884;52.538;13.820;2023-11-19T05:44:09;14.32;;;9.45;;
44842;SDS011;31884;52.538;13.820;2023-11-19T05:46:34;14.02;;;8.40;;
44842;SDS011;31884;52.538;13.820;2023-11-19T05:49:05;13.10;;;8.35;;
44842;SDS011;31884;52.538;13.820;2023-11-19T05:51:30;13.52;;;8.88;;
44842;SDS011;31884;52.538;13.820;2023-11-19T05:53:56;16.52;;;10.15;;
44842;SDS011;31884;52.538;13.820;2023-11-19T05:56:22;14.30;;;9.55;;
44842;SDS011;31884;52.538;13.820;2023-11-19T05:58:48;11.52;;;8.07;;
44842;SDS011;31884;52.538;13.820;2023-11-19T06:01:14;14.70;;;8.80;;
44842;SDS011;31884;52.538;13.820;2023-11-19T06:03:39;16.02;;;10.40;;
44842;SDS011;31884;52.538;13.820;2023-11-19T06:06:05;19.85;;;10.90;;
44842;SDS011;31884;52.538;13.820;2023-11-19T06:08:31;18.00;;;9.60;;
44842;SDS011;31884;52.538;13.820;2023-11-19T06:10:57;18.15;;;9.18;;
44842;SDS011;31884;52.538;13.820;2023-11-19T06:13:23;16.05;;;10.43;;
44842;SDS011;31884;52.538;13.820;2023-11-19T06:15:49;19.83;;;10.30;;
44842;SDS011;31884;52.538;13.820;2023-11-19T06:18:15;19.20;;;10.70;;
44842;SDS011;31884;52.538;13.820;2023-11-19T06:20:41;17.77;;;9.27;;
44842;SDS011;31884;52.538;13.820;2023-11-19T06:23:07;13.02;;;8.98;;
44842;SDS011;31884;52.538;13.820;2023-11-19T06:25:32;13.15;;;7.80;;
44842;SDS011;31884;52.538;13.820;2023-11-19T06:28:00;13.93;;;9.15;;
44842;SDS011;31884;52.538;13.820;2023-11-19T06:30:25;13.50;;;8.30;;
44842;SDS011;31884;52.538;13.820;2023-11-19T06:32:53;16.60;;;9.88;;
44842;SDS011;31884;52.538;13.820;2023-11-19T06:35:18;15.02;;;10.07;;
44842;SDS011;31884;52.538;13.820;2023-11-19T06:37:44;15.95;;;9.65;;
44842;SDS011;31884;52.538;13.820;2023-11-19T06:40:09;13.02;;;8.05;;
44842;SDS011;31884;52.538;13.820;2023-11-19T06:42:38;17.45;;;8.88;;
44842;SDS011;31884;52.538;13.820;2023-11-19T06:45:04;13.82;;;8.85;;
44842;SDS011;31884;52.538;13.820;2023-11-19T06:47:31;14.73;;;8.65;;
44842;SDS011;31884;52.538;13.820;2023-11-19T06:49:56;11.27;;;7.38;;
44842;SDS011;31884;52.538;13.820;2023-11-19T06:52:23;10.73;;;6.80;;
44842;SDS011;31884;52.538;13.820;2023-11-19T06:54:49;12.43;;;8.43;;
44842;SDS011;31884;52.538;13.820;2023-11-19T06:57:14;12.73;;;8.35;;
44842;SDS011;31884;52.538;13.820;2023-11-19T06:59:40;8.82;;;6.15;;
44842;SDS011;31884;52.538;13.820;2023-11-19T07:02:06;12.02;;;7.60;;
44842;SDS011;31884;52.538;13.820;2023-11-19T07:04:31;10.60;;;7.30;;
44842;SDS011;31884;52.538;13.820;2023-11-19T07:06:58;12.77;;;7.88;;
44842;SDS011;31884;52.538;13.820;2023-11-19T07:09:24;13.10;;;8.52;;
44842;SDS011;31884;52.538;13.820;2023-11-19T07:11:51;11.90;;;7.38;;
44842;SDS011;31884;52.538;13.820;2023-11-19T07:14:17;9.25;;;6.97;;
44842;SDS011;31884;52.538;13.820;2023-11-19T07:16:43;11.13;;;8.38;;
44842;SDS011;31884;52.538;13.820;2023-11-19T07:19:09;12.30;;;7.63;;
44842;SDS011;31884;52.538;13.820;2023-11-19T07:21:35;11.48;;;6.80;;
44842;SDS011;31884;52.538;13.820;2023-11-19T07:24:04;9.98;;;6.47;;
44842;SDS011;31884;52.538;13.820;2023-11-19T07:26:30;10.75;;;6.60;;
44842;SDS011;31884;52.538;13.820;2023-11-19T07:28:56;8.05;;;6.03;;
44842;SDS011;31884;52.538;13.820;2023-11-19T07:31:21;8.30;;;6.35;;
44842;SDS011;31884;52.538;13.820;2023-11-19T07:33:48;9.27;;;5.13;;
44842;SDS011;31884;52.538;13.820;2023-11-19T07:36:14;6.90;;;4.65;;
44842;SDS011;31884;52.538;13.820;2023-11-19T07:38:39;7.57;;;4.38;;
44842;SDS011;31884;52.538;13.820;2023-11-19T07:41:05;8.85;;;5.53;;
44842;SDS011;31884;52.538;13.820;2023-11-19T07:43:31;10.55;;;5.50;;
44842;SDS011;31884;52.538;13.820;2023-11-19T07:45:58;11.00;;;6.63;;
44842;SDS011;31884;52.538;13.820;2023-11-19T07:48:24;12.05;;;6.00;;
44842;SDS011;31884;52.538;13.820;2023-11-19T07:50:51;8.85;;;5.35;;
44842;SDS011;31884;52.538;13.820;2023-11-19T07:53:17;8.60;;;4.80;;
44842;SDS011;31884;52.538;13.820;2023-11-19T07:55:44;9.75;;;5.63;;
44842;SDS011;31884;52.538;13.820;2023-11-19T07:58:12;11.80;;;5.72;;
44842;SDS011;31884;52.538;13.820;2023-11-19T08:00:38;10.40;;;4.75;;
44842;SDS011;31884;52.538;13.820;2023-11-19T08:03:04;12.68;;;5.28;;
44842;SDS011;31884;52.538;13.820;2023-11-19T08:05:30;10.48;;;5.25;;
44842;SDS011;31884;52.538;13.820;2023-11-19T08:07:56;8.93;;;4.60;;
44842;SDS011;31884;52.538;13.820;2023-11-19T08:10:21;7.03;;;4.03;;
44842;SDS011;31884;52.538;13.820;2023-11-19T08:12:47;9.18;;;5.60;;
44842;SDS011;31884;52.538;13.820;2023-11-19T08:15:13;6.70;;;4.35;;
44842;SDS011;31884;52.538;13.820;2023-11-19T08:17:38;9.80;;;5.00;;
44842;SDS011;31884;52.538;13.820;2023-11-19T08:20:04;5.65;;;3.67;;
44842;SDS011;31884;52.538;13.820;2023-11-19T08:22:32;8.00;;;4.40;;
44842;SDS011;31884;52.538;13.820;2023-11-19T08:24:58;6.43;;;3.38;;
44842;SDS011;31884;52.538;13.820;2023-11-19T08:27:23;4.07;;;3.03;;
44842;SDS011;31884;52.538;13.820;2023-11-19T08:29:55;6.55;;;4.22;;
44842;SDS011;31884;52.538;13.820;2023-11-19T08:32:22;4.78;;;3.63;;
44842;SDS011;31884;52.538;13.820;2023-11-19T08:34:50;7.47;;;3.92;;
44842;SDS011;31884;52.538;13.820;2023-11-19T08:37:16;7.47;;;4.35;;
44842;SDS011;31884;52.538;13.820;2023-11-19T08:39:45;7.10;;;3.40;;
44842;SDS011;31884;52.538;13.820;2023-11-19T08:42:11;5.03;;;3.95;;
44842;SDS011;31884;52.538;13.820;2023-11-19T08:44:37;6.18;;;4.05;;
44842;SDS011;31884;52.538;13.820;2023-11-19T08:47:02;6.22;;;3.30;;
44842;SDS011;31884;52.538;13.820;2023-11-19T08:49:29;7.43;;;3.78;;
44842;SDS011;31884;52.538;13.820;2023-11-19T08:51:54;5.95;;;3.45;;
44842;SDS011;31884;52.538;13.820;2023-11-19T08:54:19;5.00;;;3.70;;
44842;SDS011;31884;52.538;13.820;2023-11-19T08:56:46;4.65;;;3.55;;
44842;SDS011;31884;52.538;13.820;2023-11-19T08:59:12;4.50;;;3.40;;
44842;SDS011;31884;52.538;13.820;2023-11-19T09:01:37;4.88;;;3.50;;
44842;SDS011;31884;52.538;13.820;2023-11-19T09:04:03;6.47;;;3.55;;
44842;SDS011;31884;52.538;13.820;2023-11-19T09:06:29;4.13;;;3.38;;
44842;SDS011;31884;52.538;13.820;2023-11-19T09:08:55;5.60;;;4.07;;
44842;SDS011;31884;52.538;13.820;2023-11-19T09:11:25;5.18;;;3.13;;
44842;SDS011;31884;52.538;13.820;2023-11-19T09:13:50;6.55;;;3.50;;
44842;SDS011;31884;52.538;13.820;2023-11-19T09:16:16;4.97;;;2.92;;
44842;SDS011;31884;52.538;13.820;2023-11-19T09:18:41;5.90;;;3.97;;
44842;SDS011;31884;52.538;13.820;2023-11-19T09:21:07;4.30;;;3.20;;
44842;SDS011;31884;52.538;13.820;2023-11-19T09:23:32;5.78;;;4.05;;
44842;SDS011;31884;52.538;13.820;2023-11-19T09:26:03;8.00;;;3.20;;
44842;SDS011;31884;52.538;13.820;2023-11-19T09:28:35;5.63;;;3.72;;
44842;SDS011;31884;52.538;13.820;2023-11-19T09:31:01;5.35;;;3.60;;
44842;SDS011;31884;52.538;13.820;2023-11-19T09:33:29;5.13;;;3.58;;
44842;SDS011;31884;52.538;13.820;2023-11-19T09:35:55;4.90;;;3.15;;
44842;SDS011;31884;52.538;13.820;2023-11-19T09:38:20;7.22;;;4.10;;
44842;SDS011;31884;52.538;13.820;2023-11-19T09:40:46;5.35;;;3.65;;
44842;SDS011;31884;52.538;13.820;2023-11-19T09:43:13;7.22;;;4.95;;
44842;SDS011;31884;52.538;13.820;2023-11-19T09:45:49;13.70;;;6.30;;
44842;SDS011;31884;52.538;13.820;2023-11-19T09:50:42;9.57;;;5.10;;
44842;SDS011;31884;52.538;13.820;2023-11-19T09:53:08;7.65;;;5.03;;
44842;SDS011;31884;52.538;13.820;2023-11-19T09:55:33;10.55;;;6.60;;
44842;SDS011;31884;52.538;13.820;2023-11-19T09:57:59;8.50;;;5.68;;
44842;SDS011;31884;52.538;13.820;2023-11-19T10:00:26;7.75;;;6.00;;
44842;SDS011;31884;52.538;13.820;2023-11-19T10:02:52;6.63;;;4.78;;
44842;SDS011;31884;52.538;13.820;2023-11-19T10:05:19;6.88;;;4.55;;
44842;SDS011;31884;52.538;13.820;2023-11-19T10:07:46;9.02;;;4.28;;
44842;SDS011;31884;52.538;13.820;2023-11-19T10:10:12;5.82;;;3.67;;
44842;SDS011;31884;52.538;13.820;2023-11-19T10:12:43;8.63;;;3.85;;
44842;SDS011;31884;52.538;13.820;2023-11-19T10:15:09;6.53;;;3.38;;
44842;SDS011;31884;52.538;13.820;2023-11-19T10:17:44;4.13;;;3.28;;
44842;SDS011;31884;52.538;13.820;2023-11-19T10:20:10;5.88;;;3.90;;
44842;SDS011;31884;52.538;13.820;2023-11-19T10:22:38;7.43;;;4.18;;
44842;SDS011;31884;52.538;13.820;2023-11-19T10:25:25;6.63;;;4.22;;
44842;SDS011;31884;52.538;13.820;2023-11-19T10:27:54;13.57;;;9.15;;
44842;SDS011;31884;52.538;13.820;2023-11-19T10:30:20;15.75;;;12.93;;
44842;SDS011;31884;52.538;13.820;2023-11-19T10:35:54;10.10;;;5.63;;
44842;SDS011;31884;52.538;13.820;2023-11-19T10:38:19;5.53;;;4.45;;
44842;SDS011;31884;52.538;13.820;2023-11-19T10:40:45;7.90;;;4.57;;
44842;SDS011;31884;52.538;13.820;2023-11-19T10:43:11;4.63;;;3.42;;
44842;SDS011;31884;52.538;13.820;2023-11-19T10:45:38;6.28;;;3.65;;
44842;SDS011;31884;52.538;13.820;2023-11-19T10:48:04;5.07;;;3.28;;
44842;SDS011;31884;52.538;13.820;2023-11-19T10:50:33;5.43;;;3.47;;
44842;SDS011;31884;52.538;13.820;2023-11-19T10:53:01;4.63;;;2.95;;
44842;SDS011;31884;52.538;13.820;2023-11-19T10:55:28;3.22;;;2.78;;
44842;SDS011;31884;52.538;13.820;2023-11-19T10:58:01;4.13;;;2.92;;
44842;SDS011;31884;52.538;13.820;2023-11-19T11:03:19;4.03;;;2.20;;
44842;SDS011;31884;52.538;13.820;2023-11-19T11:05:47;3.03;;;2.67;;
44842;SDS011;31884;52.538;13.820;2023-11-19T11:08:14;4.47;;;3.15;;
44842;SDS011;31884;52.538;13.820;2023-11-19T11:10:44;4.90;;;2.53;;
44842;SDS011;31884;52.538;13.820;2023-11-19T11:13:17;2.72;;;2.30;;
44842;SDS011;31884;52.538;13.820;2023-11-19T11:15:44;2.92;;;2.22;;
44842;SDS011;31884;52.538;13.820;2023-11-19T11:18:11;3.53;;;2.17;;
44842;SDS011;31884;52.538;13.820;2023-11-19T11:20:38;5.00;;;2.22;;
44842;SDS011;31884;52.538;13.820;2023-11-19T11:23:13;6.38;;;2.60;;
44842;SDS011;31884;52.538;13.820;2023-11-19T11:26:20;4.82;;;2.45;;
44842;SDS011;31884;52.538;13.820;2023-11-19T11:32:06;6.57;;;2.58;;
44842;SDS011;31884;52.538;13.820;2023-11-19T11:37:53;11.43;;;2.47;;
44842;SDS011;31884;52.538;13.820;2023-11-19T11:40:25;9.85;;;3.33;;
44842;SDS011;31884;52.538;13.820;2023-11-19T11:42:51;8.68;;;2.40;;
44842;SDS011;31884;52.538;13.820;2023-11-19T11:45:18;9.77;;;2.80;;
44842;SDS011;31884;52.538;13.820;2023-11-19T11:50:19;12.40;;;2.83;;
44842;SDS011;31884;52.538;13.820;2023-11-19T11:55:36;9.65;;;2.67;;
44842;SDS011;31884;52.538;13.820;2023-11-19T11:58:17;10.65;;;2.60;;
44842;SDS011;31884;52.538;13.820;2023-11-19T12:00:56;9.48;;;2.30;;
44842;SDS011;31884;52.538;13.820;2023-11-19T12:03:22;11.05;;;3.03;;
44842;SDS011;31884;52.538;13.820;2023-11-19T12:05:48;10.43;;;3.17;;
44842;SDS011;31884;52.538;13.820;2023-11-19T12:08:15;10.30;;;3.38;;
44842;SDS011;31884;52.538;13.820;2023-11-19T12:10:46;11.70;;;2.80;;
44842;SDS011;31884;52.538;13.820;2023-11-19T12:13:13;7.82;;;2.90;;
44842;SDS011;31884;52.538;13.820;2023-11-19T12:18:23;11.48;;;3.58;;
44842;SDS011;31884;52.538;13.820;2023-11-19T12:20:52;9.77;;;4.13;;
44842;SDS011;31884;52.538;13.820;2023-11-19T12:23:18;12.40;;;2.63;;
44842;SDS011;31884;52.538;13.820;2023-11-19T12:25:43;9.68;;;2.75;;
44842;SDS011;31884;52.538;13.820;2023-11-19T12:28:13;10.15;;;3.63;;
44842;SDS011;31884;52.538;13.820;2023-11-19T12:30:42;12.00;;;3.80;;
44842;SDS011;31884;52.538;13.820;2023-11-19T12:33:09;8.23;;;3.42;;
44842;SDS011;31884;52.538;13.820;2023-11-19T12:35:44;8.95;;;3.20;;
44842;SDS011;31884;52.538;13.820;2023-11-19T12:38:23;12.05;;;4.05;;
44842;SDS011;31884;52.538;13.820;2023-11-19T12:41:02;11.98;;;3.92;;
44842;SDS011;31884;52.538;13.820;2023-11-19T12:43:31;16.00;;;3.80;;
44842;SDS011;31884;52.538;13.820;2023-11-19T12:45:59;12.63;;;4.75;;
44842;SDS011;31884;52.538;13.820;2023-11-19T12:48:24;12.98;;;3.13;;
44842;SDS011;31884;52.538;13.820;2023-11-19T12:50:53;15.02;;;4.10;;
44842;SDS011;31884;52.538;13.820;2023-11-19T12:53:21;12.52;;;3.83;;
44842;SDS011;31884;52.538;13.820;2023-11-19T12:55:47;10.60;;;3.65;;
44842;SDS011;31884;52.538;13.820;2023-11-19T12:58:29;13.73;;;3.67;;
44842;SDS011;31884;52.538;13.820;2023-11-19T13:00:59;10.68;;;3.45;;
44842;SDS011;31884;52.538;13.820;2023-11-19T13:03:29;12.68;;;3.40;;
44842;SDS011;31884;52.538;13.820;2023-11-19T13:06:03;14.77;;;2.88;;
44842;SDS011;31884;52.538;13.820;2023-11-19T13:08:38;7.88;;;3.55;;
44842;SDS011;31884;52.538;13.820;2023-11-19T13:11:12;14.40;;;3.58;;
44842;SDS011;31884;52.538;13.820;2023-11-19T13:13:54;13.25;;;3.03;;
44842;SDS011;31884;52.538;13.820;2023-11-19T13:16:21;15.98;;;3.88;;
44842;SDS011;31884;52.538;13.820;2023-11-19T13:18:47;11.10;;;3.97;;
44842;SDS011;31884;52.538;13.820;2023-11-19T13:21:12;12.95;;;3.40;;
44842;SDS011;31884;52.538;13.820;2023-11-19T13:23:38;11.68;;;2.80;;
44842;SDS011;31884;52.538;13.820;2023-11-19T13:26:03;13.52;;;4.13;;
44842;SDS011;31884;52.538;13.820;2023-11-19T13:28:29;12.20;;;3.70;;
44842;SDS011;31884;52.538;13.820;2023-11-19T13:30:55;11.63;;;3.55;;
44842;SDS011;31884;52.538;13.820;2023-11-19T13:33:20;12.75;;;3.47;;
44842;SDS011;31884;52.538;13.820;2023-11-19T13:35:45;16.02;;;4.07;;
44842;SDS011;31884;52.538;13.820;2023-11-19T13:38:11;15.38;;;3.67;;
44842;SDS011;31884;52.538;13.820;2023-11-19T13:40:37;21.00;;;4.32;;
44842;SDS011;31884;52.538;13.820;2023-11-19T13:43:04;9.23;;;3.50;;
44842;SDS011;31884;52.538;13.820;2023-11-19T13:45:29;11.48;;;3.38;;
44842;SDS011;31884;52.538;13.820;2023-11-19T13:47:55;17.67;;;4.10;;
44842;SDS011;31884;52.538;13.820;2023-11-19T13:50:20;16.85;;;4.80;;
44842;SDS011;31884;52.538;13.820;2023-11-19T13:52:47;17.27;;;5.07;;
44842;SDS011;31884;52.538;13.820;2023-11-19T13:55:13;19.15;;;5.20;;
44842;SDS011;31884;52.538;13.820;2023-11-19T13:57:39;20.75;;;5.07;;
44842;SDS011;31884;52.538;13.820;2023-11-19T14:00:06;12.57;;;4.82;;
44842;SDS011;31884;52.538;13.820;2023-11-19T14:02:37;20.40;;;4.30;;
44842;SDS011;31884;52.538;13.820;2023-11-19T14:05:06;16.67;;;4.35;;
44842;SDS011;31884;52.538;13.820;2023-11-19T14:07:33;13.27;;;3.45;;
44842;SDS011;31884;52.538;13.820;2023-11-19T14:09:58;14.50;;;4.53;;
44842;SDS011;31884;52.538;13.820;2023-11-19T14:12:24;15.27;;;3.50;;
44842;SDS011;31884;52.538;13.820;2023-11-19T14:14:49;10.35;;;4.40;;
44842;SDS011;31884;52.538;13.820;2023-11-19T14:17:15;15.13;;;3.50;;
44842;SDS011;31884;52.538;13.820;2023-11-19T14:19:43;14.48;;;3.92;;
44842;SDS011;31884;52.538;13.820;2023-11-19T14:22:09;18.75;;;4.00;;
44842;SDS011;31884;52.538;13.820;2023-11-19T14:24:35;15.57;;;3.70;;
44842;SDS011;31884;52.538;13.820;2023-11-19T14:27:01;12.02;;;3.90;;
44842;SDS011;31884;52.538;13.820;2023-11-19T14:29:27;14.27;;;3.78;;
44842;SDS011;31884;52.538;13.820;2023-11-19T14:31:54;13.00;;;3.10;;
44842;SDS011;31884;52.538;13.820;2023-11-19T14:34:20;18.67;;;3.53;;
44842;SDS011;31884;52.538;13.820;2023-11-19T14:36:45;14.82;;;3.35;;
44842;SDS011;31884;52.538;13.820;2023-11-19T14:39:12;12.48;;;3.38;;
44842;SDS011;31884;52.538;13.820;2023-11-19T14:41:37;17.08;;;3.72;;
44842;SDS011;31884;52.538;13.820;2023-11-19T14:44:03;14.38;;;3.67;;
44842;SDS011;31884;52.538;13.820;2023-11-19T14:46:29;14.68;;;3.97;;
44842;SDS011;31884;52.538;13.820;2023-11-19T14:48:55;18.92;;;4.68;;